createdAt,value
2019-03-27T00:00:25.493Z,79.10
2019-03-27T00:02:54.879Z,79.60
2019-03-27T00:05:24.254Z,79.70
2019-03-27T00:07:53.577Z,79.70
2019-03-27T00:10:22.900Z,80.20
2019-03-27T00:12:52.487Z,79.60
2019-03-27T00:15:21.852Z,79.70
2019-03-27T00:17:51.435Z,79.50
2019-03-27T00:20:20.734Z,79.60
2019-03-27T00:22:50.120Z,79.30
2019-03-27T00:25:19.425Z,79.30
2019-03-27T00:27:48.737Z,78.70
2019-03-27T00:30:18.199Z,79.30
2019-03-27T00:32:47.507Z,79.40
2019-03-27T00:35:17.123Z,79.60
2019-03-27T00:37:46.509Z,79.40
2019-03-27T00:40:15.975Z,78.60
2019-03-27T00:42:45.295Z,78.70
2019-03-27T00:45:25.717Z,79.40
2019-03-27T00:47:46.424Z,79.50
2019-03-27T00:50:15.918Z,79.40
2019-03-27T00:52:45.550Z,78.40
2019-03-27T00:55:15.376Z,78.40
2019-03-27T00:57:45.001Z,79.20
2019-03-27T01:00:24.596Z,78.10
2019-03-27T01:02:54.398Z,77.70
2019-03-27T01:05:24.170Z,77.70
2019-03-27T01:07:53.801Z,77.50
2019-03-27T01:10:23.139Z,77.60
2019-03-27T01:12:52.517Z,77.50
2019-03-27T01:15:21.907Z,77.20
2019-03-27T01:17:51.247Z,76.70
2019-03-27T01:20:20.561Z,76.90
2019-03-27T01:22:49.966Z,76.50
2019-03-27T01:25:19.683Z,76.70
2019-03-27T01:27:49.036Z,76.90
2019-03-27T01:30:18.568Z,76.80
2019-03-27T01:32:47.879Z,77.30
2019-03-27T01:35:17.543Z,77.10
2019-03-27T01:37:47.238Z,77.30
2019-03-27T01:40:16.675Z,77.60
2019-03-27T01:42:46.592Z,77.50
2019-03-27T01:45:16.335Z,77.10
2019-03-27T01:47:45.950Z,76.90
2019-03-27T01:50:15.696Z,76.90
2019-03-27T01:52:45.315Z,77.10
2019-03-27T01:55:14.716Z,77.10
2019-03-27T01:57:44.028Z,76.90
2019-03-27T02:00:14.969Z,77.10
2019-03-27T02:02:44.307Z,77.30
2019-03-27T02:05:13.696Z,76.90
2019-03-27T02:07:43.033Z,76.90
2019-03-27T02:10:12.684Z,76.90
2019-03-27T02:12:42.009Z,77.10
2019-03-27T02:15:12.053Z,77.30
2019-03-27T02:17:41.850Z,77.30
2019-03-27T02:20:12.045Z,77.10
2019-03-27T02:22:41.356Z,77.10
2019-03-27T02:25:10.802Z,77.00
2019-03-27T02:27:40.141Z,76.90
2019-03-27T02:30:09.793Z,77.30
2019-03-27T02:32:39.168Z,77.20
2019-03-27T02:35:08.898Z,77.20
2019-03-27T02:37:38.299Z,76.80
2019-03-27T02:40:08.064Z,77.20
2019-03-27T02:42:37.363Z,77.80
2019-03-27T02:45:06.936Z,77.60
2019-03-27T02:47:36.374Z,77.60
2019-03-27T02:50:06.251Z,78.00
2019-03-27T02:52:35.914Z,77.90
2019-03-27T02:55:05.507Z,78.10
2019-03-27T02:57:34.997Z,78.20
2019-03-27T03:00:05.974Z,78.70
2019-03-27T03:02:35.543Z,78.00
2019-03-27T03:05:06.138Z,78.20
2019-03-27T03:07:35.531Z,77.80
2019-03-27T03:10:06.848Z,78.30
2019-03-27T03:12:36.224Z,78.30
2019-03-27T03:15:06.274Z,78.10
2019-03-27T03:17:35.585Z,77.80
2019-03-27T03:20:05.979Z,77.90
2019-03-27T03:22:35.387Z,78.40
2019-03-27T03:25:05.244Z,78.90
2019-03-27T03:27:34.901Z,78.40
2019-03-27T03:30:05.228Z,78.40
2019-03-27T03:32:34.637Z,79.00
2019-03-27T03:35:04.821Z,79.00
2019-03-27T03:37:34.155Z,78.80
2019-03-27T03:40:03.602Z,78.80
2019-03-27T03:42:33.178Z,79.10
2019-03-27T03:45:02.496Z,78.60
2019-03-27T03:47:32.140Z,78.70
2019-03-27T03:50:02.646Z,78.80
2019-03-27T03:52:32.110Z,78.60
2019-03-27T03:55:01.867Z,78.40
2019-03-27T03:57:32.003Z,78.30
2019-03-27T04:00:12.178Z,78.70
2019-03-27T04:02:42.828Z,78.70
2019-03-27T04:05:15.445Z,78.90
2019-03-27T04:07:44.739Z,78.80
2019-03-27T04:10:14.348Z,78.80
2019-03-27T04:12:43.951Z,78.90
2019-03-27T04:15:13.996Z,78.80
2019-03-27T04:17:43.679Z,78.60
2019-03-27T04:20:13.286Z,78.80
2019-03-27T04:22:42.784Z,79.20
2019-03-27T04:25:12.186Z,79.40
2019-03-27T04:27:41.769Z,79.30
2019-03-27T04:30:11.427Z,79.10
2019-03-27T04:32:40.754Z,78.70
2019-03-27T04:35:10.289Z,78.30
2019-03-27T04:37:39.586Z,78.20
2019-03-27T04:40:09.223Z,78.20
2019-03-27T04:42:38.530Z,78.00
2019-03-27T04:45:07.924Z,77.70
2019-03-27T04:47:37.648Z,77.80
2019-03-27T04:50:07.665Z,77.80
2019-03-27T04:52:37.662Z,77.70
2019-03-27T04:55:07.748Z,77.70
2019-03-27T04:57:37.298Z,77.60
2019-03-27T05:00:07.490Z,78.00
2019-03-27T05:02:36.919Z,78.00
2019-03-27T05:05:06.719Z,78.10
2019-03-27T05:07:36.698Z,78.50
2019-03-27T05:10:06.398Z,78.20
2019-03-27T05:12:38.447Z,78.00
2019-03-27T05:15:07.187Z,78.00
2019-03-27T05:17:45.767Z,78.00
2019-03-27T05:20:08.840Z,78.00
2019-03-27T05:22:38.484Z,78.00
2019-03-27T05:25:08.329Z,78.60
2019-03-27T05:27:38.053Z,78.80
2019-03-27T05:30:08.426Z,79.30
2019-03-27T05:32:37.846Z,79.10
2019-03-27T05:35:07.985Z,78.60
2019-03-27T05:37:37.659Z,78.70
2019-03-27T05:40:08.412Z,78.70
2019-03-27T05:42:37.827Z,78.30
2019-03-27T05:45:07.580Z,78.10
2019-03-27T05:47:36.898Z,78.00
2019-03-27T05:50:07.442Z,78.40
2019-03-27T05:52:36.820Z,78.00
2019-03-27T05:55:06.806Z,77.70
2019-03-27T05:57:36.472Z,77.40
2019-03-27T06:00:06.320Z,76.90
2019-03-27T06:02:35.654Z,76.70
2019-03-27T06:05:05.903Z,76.70
2019-03-27T06:07:35.211Z,76.70
2019-03-27T06:10:05.414Z,76.90
2019-03-27T06:12:34.714Z,77.40
2019-03-27T06:15:04.631Z,77.60
2019-03-27T06:17:34.254Z,78.50
2019-03-27T06:20:03.980Z,78.70
2019-03-27T06:22:33.661Z,78.50
2019-03-27T06:25:03.169Z,78.20
2019-03-27T06:27:32.830Z,78.10
2019-03-27T06:30:02.211Z,78.70
2019-03-27T06:32:31.788Z,79.40
2019-03-27T06:35:01.144Z,79.00
2019-03-27T06:37:30.787Z,79.60
2019-03-27T06:40:00.379Z,79.40
2019-03-27T06:42:29.839Z,79.50
2019-03-27T06:44:59.152Z,79.50
2019-03-27T06:47:28.831Z,78.80
2019-03-27T06:49:58.518Z,78.60
2019-03-27T06:52:27.917Z,78.10
2019-03-27T06:54:57.518Z,77.60
2019-03-27T06:57:26.832Z,77.70
2019-03-27T06:59:56.165Z,77.70
2019-03-27T07:02:28.660Z,77.20
2019-03-27T07:04:56.994Z,77.50
2019-03-27T07:07:26.299Z,76.80
2019-03-27T07:09:55.667Z,76.80
2019-03-27T07:12:25.380Z,77.00
2019-03-27T07:14:54.716Z,76.30
2019-03-27T07:17:24.291Z,77.20
2019-03-27T07:19:53.947Z,76.70
2019-03-27T07:22:23.629Z,76.40
2019-03-27T07:24:52.962Z,76.30
2019-03-27T07:27:22.262Z,76.20
2019-03-27T07:29:51.915Z,76.10
2019-03-27T07:32:21.573Z,76.10
2019-03-27T07:34:50.882Z,75.70
2019-03-27T07:37:20.188Z,76.00
2019-03-27T07:39:49.842Z,76.30
2019-03-27T07:42:19.423Z,75.80
2019-03-27T07:44:49.354Z,75.80
2019-03-27T07:47:18.765Z,76.10
2019-03-27T07:49:48.464Z,75.60
2019-03-27T07:52:17.791Z,74.60
2019-03-27T07:54:47.216Z,74.40
2019-03-27T07:57:16.591Z,74.10
2019-03-27T07:59:46.220Z,74.50
2019-03-27T08:02:15.825Z,74.50
2019-03-27T08:04:45.527Z,74.60
2019-03-27T08:07:26.218Z,74.50
2019-03-27T08:09:46.557Z,74.20
2019-03-27T08:12:16.594Z,73.00
2019-03-27T08:14:46.244Z,73.10
2019-03-27T08:17:15.804Z,73.00
2019-03-27T08:19:45.468Z,72.50
2019-03-27T08:22:15.449Z,72.70
2019-03-27T08:24:45.322Z,73.00
2019-03-27T08:27:15.253Z,73.40
2019-03-27T08:29:44.907Z,73.70
2019-03-27T08:32:14.514Z,73.40
2019-03-27T08:34:44.393Z,73.60
2019-03-27T08:37:14.106Z,73.50
2019-03-27T08:39:43.420Z,73.40
2019-03-27T08:42:13.087Z,73.30
2019-03-27T08:44:43.030Z,72.10
2019-03-27T08:47:12.694Z,72.20
2019-03-27T08:49:42.029Z,72.20
2019-03-27T08:52:12.134Z,71.70
2019-03-27T08:54:41.956Z,71.30
2019-03-27T08:57:11.547Z,71.60
2019-03-27T08:59:40.856Z,70.90
2019-03-27T09:02:10.629Z,70.20
2019-03-27T09:04:39.976Z,70.20
2019-03-27T09:07:09.352Z,70.50
2019-03-27T09:09:38.666Z,70.80
2019-03-27T09:12:08.278Z,70.10
2019-03-27T09:14:37.657Z,70.50
2019-03-27T09:17:07.076Z,69.50
2019-03-27T09:19:36.541Z,70.20
2019-03-27T09:22:06.117Z,69.50
2019-03-27T09:24:35.791Z,67.60
2019-03-27T09:27:05.360Z,68.00
2019-03-27T09:29:34.852Z,67.30
2019-03-27T09:32:04.169Z,67.70
2019-03-27T09:34:33.732Z,66.30
2019-03-27T09:37:03.050Z,65.40
2019-03-27T09:39:32.430Z,65.50
2019-03-27T09:42:01.759Z,66.10
2019-03-27T09:44:31.349Z,66.30
2019-03-27T09:47:00.671Z,66.50
2019-03-27T09:49:30.952Z,66.30
2019-03-27T09:52:00.789Z,65.50
2019-03-27T09:54:30.457Z,65.20
2019-03-27T09:57:00.069Z,64.40
2019-03-27T09:59:29.392Z,64.20
2019-03-27T10:01:58.708Z,63.70
2019-03-27T10:04:28.042Z,63.00
2019-03-27T10:06:57.403Z,62.60
2019-03-27T10:09:26.813Z,62.00
2019-03-27T10:11:56.983Z,61.50
2019-03-27T10:14:26.637Z,61.40
2019-03-27T10:16:56.033Z,60.40
2019-03-27T10:19:26.023Z,60.90
2019-03-27T10:21:55.345Z,60.70
2019-03-27T10:24:24.645Z,60.70
2019-03-27T10:26:54.342Z,61.10
2019-03-27T10:29:23.736Z,61.30
2019-03-27T10:31:53.476Z,60.70
2019-03-27T10:34:22.852Z,60.70
2019-03-27T10:36:52.661Z,60.30
2019-03-27T10:39:22.577Z,60.90
2019-03-27T10:41:51.901Z,59.10
2019-03-27T10:44:21.212Z,59.20
2019-03-27T10:46:50.900Z,58.30
2019-03-27T10:49:20.324Z,57.70
2019-03-27T10:51:49.696Z,57.10
2019-03-27T10:54:19.029Z,57.20
2019-03-27T10:56:48.717Z,56.90
2019-03-27T10:59:18.120Z,56.50
2019-03-27T11:01:47.524Z,57.20
2019-03-27T11:04:16.843Z,56.60
2019-03-27T11:06:46.722Z,56.90
2019-03-27T11:09:16.325Z,57.10
2019-03-27T11:11:45.643Z,56.90
2019-03-27T11:14:15.299Z,58.20
2019-03-27T11:16:44.604Z,57.50
2019-03-27T11:19:13.964Z,56.40
2019-03-27T11:21:43.317Z,56.40
2019-03-27T11:24:12.671Z,55.70
2019-03-27T11:26:41.976Z,56.70
2019-03-27T11:29:11.324Z,56.40
2019-03-27T11:31:41.542Z,56.00
2019-03-27T11:34:11.244Z,56.10
2019-03-27T11:36:40.579Z,57.00
2019-03-27T11:39:10.916Z,55.50
2019-03-27T11:41:40.517Z,56.80
2019-03-27T11:44:12.587Z,56.80
2019-03-27T11:46:41.188Z,56.70
2019-03-27T11:49:11.119Z,56.90
2019-03-27T11:51:41.001Z,56.90
2019-03-27T11:54:10.828Z,55.70
2019-03-27T11:56:40.146Z,55.80
2019-03-27T11:59:09.643Z,55.60
2019-03-27T12:01:43.487Z,55.20
2019-03-27T12:04:10.447Z,55.60
2019-03-27T12:06:40.082Z,56.10
2019-03-27T12:09:09.487Z,56.10
2019-03-27T12:11:39.108Z,55.30
2019-03-27T12:14:08.513Z,55.10
2019-03-27T12:16:37.862Z,55.50
2019-03-27T12:19:07.584Z,55.70
2019-03-27T12:21:37.395Z,55.00
2019-03-27T12:24:06.996Z,55.30
2019-03-27T12:26:36.579Z,56.10
2019-03-27T12:29:06.522Z,56.50
2019-03-27T12:31:36.432Z,57.00
2019-03-27T12:34:05.772Z,57.50
2019-03-27T12:36:35.528Z,58.30
2019-03-27T12:39:07.088Z,57.80
2019-03-27T12:41:36.421Z,57.90
2019-03-27T12:44:06.153Z,59.00
2019-03-27T12:46:36.031Z,59.30
2019-03-27T12:49:05.419Z,60.00
2019-03-27T12:51:35.147Z,60.30
2019-03-27T12:54:04.843Z,59.90
2019-03-27T12:56:34.225Z,59.60
2019-03-27T12:59:04.081Z,59.50
2019-03-27T13:01:33.417Z,59.20
2019-03-27T13:04:02.733Z,59.00
2019-03-27T13:06:33.212Z,58.40
2019-03-27T13:09:02.627Z,57.80
2019-03-27T13:11:36.709Z,57.70
2019-03-27T13:14:05.995Z,57.20
2019-03-27T13:16:35.649Z,57.60
2019-03-27T13:19:05.323Z,58.40
2019-03-27T13:21:34.713Z,59.20
2019-03-27T13:24:04.123Z,59.10
2019-03-27T13:26:33.439Z,58.80
2019-03-27T13:29:02.907Z,58.40
2019-03-27T13:31:33.549Z,59.10
2019-03-27T13:34:03.371Z,59.60
2019-03-27T13:36:33.297Z,60.60
2019-03-27T13:39:03.310Z,59.80
2019-03-27T13:41:32.648Z,59.50
2019-03-27T13:44:02.966Z,58.90
2019-03-27T13:46:33.096Z,58.90
2019-03-27T13:49:02.510Z,58.30
2019-03-27T13:51:40.337Z,58.10
2019-03-27T13:54:03.371Z,57.70
2019-03-27T13:56:33.030Z,57.20
2019-03-27T13:59:02.721Z,56.70
2019-03-27T14:01:32.097Z,56.60
2019-03-27T14:04:01.683Z,55.70
2019-03-27T14:06:31.356Z,55.60
2019-03-27T14:09:00.952Z,54.30
2019-03-27T14:11:30.280Z,54.00
2019-03-27T14:14:10.736Z,54.10
2019-03-27T14:16:31.833Z,54.20
2019-03-27T14:19:01.481Z,54.30
2019-03-27T14:21:31.141Z,54.60
2019-03-27T14:24:00.739Z,54.90
2019-03-27T14:26:44.055Z,55.00
2019-03-27T14:29:01.228Z,55.00
2019-03-27T14:31:30.555Z,55.20
2019-03-27T14:34:00.269Z,55.60
2019-03-27T14:36:29.934Z,55.80
2019-03-27T14:38:59.915Z,55.30
2019-03-27T14:41:29.289Z,54.40
2019-03-27T14:43:58.621Z,54.80
2019-03-27T14:46:28.029Z,55.20
2019-03-27T14:48:57.346Z,54.50
2019-03-27T14:51:26.672Z,55.00
2019-03-27T14:53:56.646Z,54.70
2019-03-27T14:56:26.077Z,55.00
2019-03-27T14:58:55.773Z,54.70
2019-03-27T15:01:25.098Z,55.10
2019-03-27T15:03:55.238Z,55.50
2019-03-27T15:06:24.567Z,55.30
2019-03-27T15:08:54.208Z,55.70
2019-03-27T15:11:23.816Z,55.60
2019-03-27T15:13:53.733Z,55.40
2019-03-27T15:16:23.412Z,55.30
2019-03-27T15:18:53.043Z,55.60
2019-03-27T15:21:22.763Z,55.70
2019-03-27T15:23:52.431Z,56.10
2019-03-27T15:26:22.358Z,56.10
2019-03-27T15:28:51.956Z,56.00
2019-03-27T15:31:22.464Z,55.80
2019-03-27T15:33:52.079Z,55.40
2019-03-27T15:36:21.729Z,55.70
2019-03-27T15:38:51.433Z,55.70
2019-03-27T15:41:21.439Z,55.20
2019-03-27T15:43:51.006Z,54.80
2019-03-27T15:46:20.633Z,55.10
2019-03-27T15:48:50.274Z,55.30
2019-03-27T15:51:19.966Z,54.40
2019-03-27T15:53:49.885Z,54.70
2019-03-27T15:56:19.240Z,54.80
2019-03-27T15:58:48.600Z,54.30
2019-03-27T16:01:18.043Z,54.70
2019-03-27T16:03:47.452Z,55.00
2019-03-27T16:06:16.891Z,54.90
2019-03-27T16:08:46.575Z,55.90
2019-03-27T16:11:15.918Z,56.40
2019-03-27T16:13:45.979Z,56.90
2019-03-27T16:16:15.623Z,57.20
2019-03-27T16:18:45.365Z,56.60
2019-03-27T16:21:14.775Z,56.80
2019-03-27T16:23:44.411Z,56.70
2019-03-27T16:26:14.394Z,56.80
2019-03-27T16:28:44.416Z,57.30
2019-03-27T16:31:14.315Z,57.10
2019-03-27T16:33:49.355Z,56.70
2019-03-27T16:36:19.118Z,56.90
2019-03-27T16:38:48.990Z,56.80
2019-03-27T16:41:18.402Z,56.60
2019-03-27T16:43:48.284Z,56.90
2019-03-27T16:46:17.709Z,57.00
2019-03-27T16:48:47.482Z,57.90
2019-03-27T16:51:17.292Z,57.50
2019-03-27T16:53:46.897Z,58.70
2019-03-27T16:56:16.915Z,58.60
2019-03-27T16:58:46.577Z,60.00
2019-03-27T17:01:16.461Z,59.80
2019-03-27T17:03:46.149Z,61.20
2019-03-27T17:06:16.080Z,61.20
2019-03-27T17:08:45.765Z,60.40
2019-03-27T17:11:15.120Z,60.40
2019-03-27T17:13:44.486Z,60.40
2019-03-27T17:16:14.237Z,61.20
2019-03-27T17:18:43.619Z,60.90
2019-03-27T17:21:13.340Z,61.00
2019-03-27T17:23:43.064Z,60.90
2019-03-27T17:26:12.367Z,61.70
2019-03-27T17:28:41.711Z,61.40
2019-03-27T17:31:11.023Z,61.30
2019-03-27T17:33:40.710Z,60.40
2019-03-27T17:36:10.449Z,60.80
2019-03-27T17:38:40.093Z,60.40
2019-03-27T17:41:09.489Z,59.90
2019-03-27T17:43:38.808Z,59.40
2019-03-27T17:46:08.902Z,59.10
2019-03-27T17:48:38.690Z,59.70
2019-03-27T17:51:08.763Z,59.00
2019-03-27T17:53:38.435Z,58.80
2019-03-27T17:56:08.131Z,59.10
2019-03-27T17:58:37.820Z,59.00
2019-03-27T18:01:07.757Z,58.80
2019-03-27T18:03:37.509Z,59.10
2019-03-27T18:06:07.119Z,59.40
2019-03-27T18:08:36.515Z,59.40
2019-03-27T18:11:08.109Z,59.50
2019-03-27T18:13:37.169Z,59.50
2019-03-27T18:16:06.551Z,59.80
2019-03-27T18:18:36.635Z,60.10
2019-03-27T18:21:06.354Z,60.10
2019-03-27T18:23:45.743Z,60.00
2019-03-27T18:26:07.284Z,60.10
2019-03-27T18:28:36.891Z,60.20
2019-03-27T18:31:06.918Z,60.00
2019-03-27T18:33:36.585Z,59.80
2019-03-27T18:36:05.962Z,59.70
2019-03-27T18:38:35.281Z,59.80
2019-03-27T18:41:04.944Z,59.50
2019-03-27T18:43:34.538Z,59.30
2019-03-27T18:46:04.135Z,59.00
2019-03-27T18:48:34.109Z,58.80
2019-03-27T18:51:03.566Z,59.30
2019-03-27T18:53:33.263Z,60.00
2019-03-27T18:56:02.601Z,60.00
2019-03-27T18:58:32.693Z,60.20
2019-03-27T19:01:02.012Z,60.50
2019-03-27T19:03:31.329Z,61.00
2019-03-27T19:06:00.628Z,61.50
2019-03-27T19:08:30.302Z,61.50
2019-03-27T19:10:59.696Z,61.30
2019-03-27T19:13:29.330Z,61.00
2019-03-27T19:15:58.716Z,61.20
2019-03-27T19:18:28.192Z,61.70
2019-03-27T19:20:57.767Z,61.60
2019-03-27T19:23:27.433Z,62.20
2019-03-27T19:25:56.841Z,62.20
2019-03-27T19:28:26.861Z,62.30
2019-03-27T19:30:56.249Z,62.10
2019-03-27T19:33:26.142Z,62.10
2019-03-27T19:35:56.177Z,62.40
2019-03-27T19:38:25.948Z,63.00
2019-03-27T19:40:55.599Z,63.10
2019-03-27T19:43:24.924Z,62.70
2019-03-27T19:45:57.344Z,62.70
2019-03-27T19:48:25.338Z,62.40
2019-03-27T19:50:54.647Z,62.30
2019-03-27T19:53:24.054Z,62.50
2019-03-27T19:55:53.755Z,62.60
2019-03-27T19:58:23.100Z,62.90
2019-03-27T20:00:53.500Z,62.50
2019-03-27T20:03:22.831Z,62.00
2019-03-27T20:05:52.152Z,61.80
2019-03-27T20:08:21.467Z,61.70
2019-03-27T20:10:51.375Z,61.60
2019-03-27T20:13:21.107Z,61.80
2019-03-27T20:15:50.441Z,61.70
2019-03-27T20:18:20.073Z,62.10
2019-03-27T20:20:49.678Z,62.00
2019-03-27T20:23:19.541Z,61.60
2019-03-27T20:25:48.872Z,61.20
2019-03-27T20:28:18.169Z,61.80
2019-03-27T20:30:47.489Z,61.70
2019-03-27T20:33:16.796Z,62.20
2019-03-27T20:35:46.179Z,62.60
2019-03-27T20:38:15.483Z,63.60
2019-03-27T20:40:44.803Z,63.80
2019-03-27T20:43:14.166Z,64.50
2019-03-27T20:45:43.857Z,64.40
2019-03-27T20:48:13.204Z,64.70
2019-03-27T20:50:43.098Z,64.60
2019-03-27T20:53:13.089Z,64.50
2019-03-27T20:55:42.440Z,64.00
2019-03-27T20:58:11.744Z,63.90
2019-03-27T21:00:41.132Z,63.70
2019-03-27T21:03:10.431Z,63.70
2019-03-27T21:05:40.480Z,64.20
2019-03-27T21:08:09.780Z,64.10
2019-03-27T21:10:39.574Z,63.90
2019-03-27T21:13:09.124Z,64.10
2019-03-27T21:15:39.069Z,64.30
2019-03-27T21:18:08.503Z,64.70
2019-03-27T21:20:38.098Z,64.80
2019-03-27T21:23:07.763Z,66.20
2019-03-27T21:25:37.203Z,66.60
2019-03-27T21:28:06.588Z,66.50
2019-03-27T21:30:36.264Z,66.50
2019-03-27T21:33:05.576Z,67.00
2019-03-27T21:35:35.146Z,68.80
2019-03-27T21:38:04.554Z,69.30
2019-03-27T21:40:33.862Z,70.00
2019-03-27T21:43:03.205Z,70.20
2019-03-27T21:45:32.947Z,69.70
2019-03-27T21:48:02.275Z,69.90
2019-03-27T21:50:31.851Z,70.60
2019-03-27T21:53:01.431Z,71.50
2019-03-27T21:55:42.121Z,71.50
2019-03-27T21:58:02.402Z,71.90
2019-03-27T22:00:39.053Z,72.40
2019-03-27T22:03:09.256Z,73.20
2019-03-27T22:05:39.010Z,74.00
2019-03-27T22:08:08.409Z,74.80
2019-03-27T22:10:37.765Z,74.90
2019-03-27T22:13:07.144Z,75.20
2019-03-27T22:15:36.639Z,76.00
2019-03-27T22:18:06.015Z,77.00
2019-03-27T22:20:35.422Z,77.90
2019-03-27T22:23:05.078Z,78.10
2019-03-27T22:25:36.124Z,78.30
2019-03-27T22:28:06.076Z,78.40
2019-03-27T22:30:35.797Z,78.10
2019-03-27T22:33:05.334Z,78.20
2019-03-27T22:35:34.961Z,78.30
2019-03-27T22:38:04.677Z,78.10
2019-03-27T22:40:34.589Z,77.80
2019-03-27T22:43:04.203Z,77.70
2019-03-27T22:45:33.909Z,78.20
2019-03-27T22:48:03.335Z,78.20
2019-03-27T22:50:33.058Z,78.00
2019-03-27T22:53:02.357Z,77.30
2019-03-27T22:55:31.724Z,77.00
2019-03-27T22:58:01.102Z,77.00
2019-03-27T23:00:40.150Z,77.50
2019-03-27T23:03:18.221Z,77.30
2019-03-27T23:05:40.643Z,76.80
2019-03-27T23:08:10.800Z,76.50
2019-03-27T23:10:40.434Z,76.90
2019-03-27T23:13:10.100Z,77.30
2019-03-27T23:15:39.741Z,77.60
2019-03-27T23:18:09.137Z,77.10
2019-03-27T23:20:38.436Z,77.50
2019-03-27T23:23:08.018Z,78.00
2019-03-27T23:25:37.331Z,77.20
2019-03-27T23:28:06.959Z,77.30
2019-03-27T23:30:36.668Z,76.80
2019-03-27T23:33:06.012Z,76.80
2019-03-27T23:35:35.778Z,76.90
2019-03-27T23:38:05.207Z,76.90
2019-03-27T23:40:34.596Z,76.80
2019-03-27T23:43:04.087Z,76.40
2019-03-27T23:45:33.704Z,76.10
2019-03-27T23:48:03.007Z,76.20
2019-03-27T23:50:32.319Z,76.40
2019-03-27T23:53:01.622Z,76.50
2019-03-27T23:55:31.294Z,76.80
2019-03-27T23:58:00.670Z,76.90
